sensor_id;sensor_type;location;lat;lon;timestamp;temperature;humidity
39899;DHT22;25571;47.876;10.642;2023-03-01T00:01:23;1.50;99.90
39899;DHT22;25571;47.876;10.642;2023-03-01T00:03:50;1.50;99.90
39899;DHT22;25571;47.876;10.642;2023-03-01T00:06:16;1.50;99.90
39899;DHT22;25571;47.876;10.642;2023-03-01T00:08:42;1.50;99.90
39899;DHT22;25571;47.876;10.642;2023-03-01T00:11:19;1.60;99.90
39899;DHT22;25571;47.876;10.642;2023-03-01T00:13:48;1.50;99.90
39899;DHT22;25571;47.876;10.642;2023-03-01T00:16:34;1.60;99.90
39899;DHT22;25571;47.876;10.642;2023-03-01T00:19:00;1.60;99.90
39899;DHT22;25571;47.876;10.642;2023-03-01T00:21:27;1.60;99.90
39899;DHT22;25571;47.876;10.642;2023-03-01T00:23:53;1.60;99.90
39899;DHT22;25571;47.876;10.642;2023-03-01T00:26:21;1.60;99.90
39899;DHT22;25571;47.876;10.642;2023-03-01T00:28:47;1.70;99.90
39899;DHT22;25571;47.876;10.642;2023-03-01T00:31:18;1.70;99.90
39899;DHT22;25571;47.876;10.642;2023-03-01T00:33:44;1.60;99.90
39899;DHT22;25571;47.876;10.642;2023-03-01T00:36:11;1.60;99.90
39899;DHT22;25571;47.876;10.642;2023-03-01T00:38:38;1.50;99.90
39899;DHT22;25571;47.876;10.642;2023-03-01T00:41:06;1.60;99.90
39899;DHT22;25571;47.876;10.642;2023-03-01T00:43:32;1.50;99.90
39899;DHT22;25571;47.876;10.642;2023-03-01T00:46:06;1.60;99.90
39899;DHT22;25571;47.876;10.642;2023-03-01T00:48:32;1.60;99.90
39899;DHT22;25571;47.876;10.642;2023-03-01T00:51:05;1.50;99.90
39899;DHT22;25571;47.876;10.642;2023-03-01T00:53:30;1.60;99.90
39899;DHT22;25571;47.876;10.642;2023-03-01T00:55:57;1.70;99.90
39899;DHT22;25571;47.876;10.642;2023-03-01T00:58:23;1.60;99.90
39899;DHT22;25571;47.876;10.642;2023-03-01T01:00:49;1.60;99.90
39899;DHT22;25571;47.876;10.642;2023-03-01T01:03:14;1.70;99.90
39899;DHT22;25571;47.876;10.642;2023-03-01T01:05:40;1.50;99.90
39899;DHT22;25571;47.876;10.642;2023-03-01T01:08:06;1.50;99.90
39899;DHT22;25571;47.876;10.642;2023-03-01T01:10:34;1.60;99.90
39899;DHT22;25571;47.876;10.642;2023-03-01T01:12:59;1.60;99.90
39899;DHT22;25571;47.876;10.642;2023-03-01T01:15:25;1.70;99.90
39899;DHT22;25571;47.876;10.642;2023-03-01T01:17:51;1.60;99.90
39899;DHT22;25571;47.876;10.642;2023-03-01T01:20:17;1.60;99.90
39899;DHT22;25571;47.876;10.642;2023-03-01T01:22:42;1.60;99.90
39899;DHT22;25571;47.876;10.642;2023-03-01T01:25:08;1.60;99.90
39899;DHT22;25571;47.876;10.642;2023-03-01T01:27:34;1.60;99.90
39899;DHT22;25571;47.876;10.642;2023-03-01T01:29:59;1.60;99.90
39899;DHT22;25571;47.876;10.642;2023-03-01T01:32:25;1.60;99.90
39899;DHT22;25571;47.876;10.642;2023-03-01T01:34:51;1.50;99.90
39899;DHT22;25571;47.876;10.642;2023-03-01T01:37:16;1.40;99.90
39899;DHT22;25571;47.876;10.642;2023-03-01T01:39:42;1.50;99.90
39899;DHT22;25571;47.876;10.642;2023-03-01T01:42:15;1.40;99.90
39899;DHT22;25571;47.876;10.642;2023-03-01T01:44:44;1.40;99.90
39899;DHT22;25571;47.876;10.642;2023-03-01T01:47:22;1.40;99.90
39899;DHT22;25571;47.876;10.642;2023-03-01T01:49:54;1.40;99.90
39899;DHT22;25571;47.876;10.642;2023-03-01T01:52:26;1.40;99.90
39899;DHT22;25571;47.876;10.642;2023-03-01T01:55:14;1.30;99.90
39899;DHT22;25571;47.876;10.642;2023-03-01T01:57:47;1.40;99.90
39899;DHT22;25571;47.876;10.642;2023-03-01T02:00:20;1.30;99.90
39899;DHT22;25571;47.876;10.642;2023-03-01T02:02:48;1.30;99.90
39899;DHT22;25571;47.876;10.642;2023-03-01T02:05:50;1.40;99.90
39899;DHT22;25571;47.876;10.642;2023-03-01T02:08:20;1.30;99.90
39899;DHT22;25571;47.876;10.642;2023-03-01T02:10:48;1.20;99.90
39899;DHT22;25571;47.876;10.642;2023-03-01T02:13:14;1.20;99.90
39899;DHT22;25571;47.876;10.642;2023-03-01T02:15:40;1.20;99.90
39899;DHT22;25571;47.876;10.642;2023-03-01T02:18:07;1.30;99.90
39899;DHT22;25571;47.876;10.642;2023-03-01T02:23:02;1.20;99.90
39899;DHT22;25571;47.876;10.642;2023-03-01T02:25:34;1.10;99.90
39899;DHT22;25571;47.876;10.642;2023-03-01T02:30:42;1.10;99.90
39899;DHT22;25571;47.876;10.642;2023-03-01T02:33:30;1.10;99.90
39899;DHT22;25571;47.876;10.642;2023-03-01T02:36:06;1.20;99.90
39899;DHT22;25571;47.876;10.642;2023-03-01T02:38:33;1.10;99.90
39899;DHT22;25571;47.876;10.642;2023-03-01T02:40:59;1.00;99.90
39899;DHT22;25571;47.876;10.642;2023-03-01T02:43:29;1.10;99.90
39899;DHT22;25571;47.876;10.642;2023-03-01T02:45:58;1.20;99.90
39899;DHT22;25571;47.876;10.642;2023-03-01T02:48:24;1.10;99.90
39899;DHT22;25571;47.876;10.642;2023-03-01T02:53:41;1.00;99.90
39899;DHT22;25571;47.876;10.642;2023-03-01T02:56:10;1.00;99.90
39899;DHT22;25571;47.876;10.642;2023-03-01T02:58:40;1.00;99.90
39899;DHT22;25571;47.876;10.642;2023-03-01T03:01:12;0.90;99.90
39899;DHT22;25571;47.876;10.642;2023-03-01T03:03:40;0.90;99.90
39899;DHT22;25571;47.876;10.642;2023-03-01T03:06:06;0.80;99.90
39899;DHT22;25571;47.876;10.642;2023-03-01T03:08:32;0.90;99.90
39899;DHT22;25571;47.876;10.642;2023-03-01T03:10:57;1.00;99.90
39899;DHT22;25571;47.876;10.642;2023-03-01T03:13:23;1.00;99.90
39899;DHT22;25571;47.876;10.642;2023-03-01T03:15:54;1.10;99.90
39899;DHT22;25571;47.876;10.642;2023-03-01T03:18:20;1.10;99.90
39899;DHT22;25571;47.876;10.642;2023-03-01T03:20:47;1.20;99.90
39899;DHT22;25571;47.876;10.642;2023-03-01T03:23:13;1.10;99.90
39899;DHT22;25571;47.876;10.642;2023-03-01T03:25:38;1.20;99.90
39899;DHT22;25571;47.876;10.642;2023-03-01T03:28:05;1.20;99.90
39899;DHT22;25571;47.876;10.642;2023-03-01T03:30:37;1.20;99.90
39899;DHT22;25571;47.876;10.642;2023-03-01T03:33:05;1.00;99.90
39899;DHT22;25571;47.876;10.642;2023-03-01T03:35:33;0.90;99.90
39899;DHT22;25571;47.876;10.642;2023-03-01T03:38:01;1.00;99.90
39899;DHT22;25571;47.876;10.642;2023-03-01T03:40:28;1.00;99.90
39899;DHT22;25571;47.876;10.642;2023-03-01T03:42:54;1.00;99.90
39899;DHT22;25571;47.876;10.642;2023-03-01T03:45:20;0.90;99.90
39899;DHT22;25571;47.876;10.642;2023-03-01T03:47:45;1.00;99.90
39899;DHT22;25571;47.876;10.642;2023-03-01T03:50:13;0.90;99.90
39899;DHT22;25571;47.876;10.642;2023-03-01T03:52:40;1.00;99.90
39899;DHT22;25571;47.876;10.642;2023-03-01T03:55:06;1.00;99.90
39899;DHT22;25571;47.876;10.642;2023-03-01T03:57:39;1.00;99.90
39899;DHT22;25571;47.876;10.642;2023-03-01T04:00:06;1.00;99.90
39899;DHT22;25571;47.876;10.642;2023-03-01T04:02:42;1.00;99.90
39899;DHT22;25571;47.876;10.642;2023-03-01T04:05:09;1.00;99.90
39899;DHT22;25571;47.876;10.642;2023-03-01T04:07:35;0.90;99.90
39899;DHT22;25571;47.876;10.642;2023-03-01T04:10:03;0.90;99.90
39899;DHT22;25571;47.876;10.642;2023-03-01T04:12:29;0.90;99.90
39899;DHT22;25571;47.876;10.642;2023-03-01T04:14:55;0.90;99.90
39899;DHT22;25571;47.876;10.642;2023-03-01T04:17:20;0.90;99.90
39899;DHT22;25571;47.876;10.642;2023-03-01T04:19:46;0.90;99.90
39899;DHT22;25571;47.876;10.642;2023-03-01T04:22:14;0.90;99.90
39899;DHT22;25571;47.876;10.642;2023-03-01T04:24:44;1.00;99.90
39899;DHT22;25571;47.876;10.642;2023-03-01T04:27:10;1.00;99.90
39899;DHT22;25571;47.876;10.642;2023-03-01T04:29:36;1.00;99.90
39899;DHT22;25571;47.876;10.642;2023-03-01T04:32:01;0.90;99.90
39899;DHT22;25571;47.876;10.642;2023-03-01T04:34:28;0.90;99.90
39899;DHT22;25571;47.876;10.642;2023-03-01T04:36:54;0.80;99.90
39899;DHT22;25571;47.876;10.642;2023-03-01T04:39:20;0.90;99.90
39899;DHT22;25571;47.876;10.642;2023-03-01T04:41:46;0.80;99.90
39899;DHT22;25571;47.876;10.642;2023-03-01T04:44:12;0.70;99.90
39899;DHT22;25571;47.876;10.642;2023-03-01T04:46:38;0.70;99.90
39899;DHT22;25571;47.876;10.642;2023-03-01T04:49:03;0.80;99.90
39899;DHT22;25571;47.876;10.642;2023-03-01T04:51:30;0.70;99.90
39899;DHT22;25571;47.876;10.642;2023-03-01T04:53:58;0.70;99.90
39899;DHT22;25571;47.876;10.642;2023-03-01T04:56:23;0.80;99.90
39899;DHT22;25571;47.876;10.642;2023-03-01T04:58:49;0.90;99.90
39899;DHT22;25571;47.876;10.642;2023-03-01T05:01:19;0.90;99.90
39899;DHT22;25571;47.876;10.642;2023-03-01T05:03:50;0.90;99.90
39899;DHT22;25571;47.876;10.642;2023-03-01T05:06:16;0.90;99.90
39899;DHT22;25571;47.876;10.642;2023-03-01T05:08:43;1.00;99.90
39899;DHT22;25571;47.876;10.642;2023-03-01T05:11:10;1.00;99.90
39899;DHT22;25571;47.876;10.642;2023-03-01T05:13:37;1.00;99.90
39899;DHT22;25571;47.876;10.642;2023-03-01T05:16:04;0.90;99.90
39899;DHT22;25571;47.876;10.642;2023-03-01T05:18:32;0.90;99.90
39899;DHT22;25571;47.876;10.642;2023-03-01T05:21:04;0.90;99.90
39899;DHT22;25571;47.876;10.642;2023-03-01T05:23:31;0.90;99.90
39899;DHT22;25571;47.876;10.642;2023-03-01T05:26:00;0.90;99.90
39899;DHT22;25571;47.876;10.642;2023-03-01T05:28:27;0.80;99.90
39899;DHT22;25571;47.876;10.642;2023-03-01T05:30:57;0.80;99.90
39899;DHT22;25571;47.876;10.642;2023-03-01T05:33:24;0.80;99.90
39899;DHT22;25571;47.876;10.642;2023-03-01T05:35:50;0.70;99.90
39899;DHT22;25571;47.876;10.642;2023-03-01T05:38:17;0.60;99.90
39899;DHT22;25571;47.876;10.642;2023-03-01T05:40:44;0.60;99.90
39899;DHT22;25571;47.876;10.642;2023-03-01T05:43:11;0.60;99.90
39899;DHT22;25571;47.876;10.642;2023-03-01T05:45:38;0.60;99.90
39899;DHT22;25571;47.876;10.642;2023-03-01T05:48:05;0.40;99.90
39899;DHT22;25571;47.876;10.642;2023-03-01T05:50:43;0.30;99.90
39899;DHT22;25571;47.876;10.642;2023-03-01T05:53:14;0.30;99.90
39899;DHT22;25571;47.876;10.642;2023-03-01T05:55:41;0.40;99.90
39899;DHT22;25571;47.876;10.642;2023-03-01T05:58:10;0.40;99.90
39899;DHT22;25571;47.876;10.642;2023-03-01T06:00:36;0.40;99.90
39899;DHT22;25571;47.876;10.642;2023-03-01T06:03:02;0.40;99.90
39899;DHT22;25571;47.876;10.642;2023-03-01T06:05:28;0.40;99.90
39899;DHT22;25571;47.876;10.642;2023-03-01T06:07:54;0.50;99.90
39899;DHT22;25571;47.876;10.642;2023-03-01T06:10:21;0.50;99.90
39899;DHT22;25571;47.876;10.642;2023-03-01T06:12:47;0.50;99.90
39899;DHT22;25571;47.876;10.642;2023-03-01T06:15:14;0.50;99.90
39899;DHT22;25571;47.876;10.642;2023-03-01T06:17:42;0.60;99.90
39899;DHT22;25571;47.876;10.642;2023-03-01T06:20:19;0.50;99.90
39899;DHT22;25571;47.876;10.642;2023-03-01T06:22:46;0.50;99.90
39899;DHT22;25571;47.876;10.642;2023-03-01T06:25:14;0.40;99.90
39899;DHT22;25571;47.876;10.642;2023-03-01T06:27:40;0.50;99.90
39899;DHT22;25571;47.876;10.642;2023-03-01T06:30:07;0.40;99.90
39899;DHT22;25571;47.876;10.642;2023-03-01T06:32:33;0.40;99.90
39899;DHT22;25571;47.876;10.642;2023-03-01T06:34:59;0.40;99.90
39899;DHT22;25571;47.876;10.642;2023-03-01T06:37:27;0.50;99.90
39899;DHT22;25571;47.876;10.642;2023-03-01T06:39:52;0.50;99.90
39899;DHT22;25571;47.876;10.642;2023-03-01T06:42:18;0.60;99.90
39899;DHT22;25571;47.876;10.642;2023-03-01T06:44:44;0.50;99.90
39899;DHT22;25571;47.876;10.642;2023-03-01T06:47:11;0.40;99.90
39899;DHT22;25571;47.876;10.642;2023-03-01T06:49:36;0.30;99.90
39899;DHT22;25571;47.876;10.642;2023-03-01T06:52:02;0.30;99.90
39899;DHT22;25571;47.876;10.642;2023-03-01T06:54:28;0.30;99.90
39899;DHT22;25571;47.876;10.642;2023-03-01T06:56:53;0.30;99.90
39899;DHT22;25571;47.876;10.642;2023-03-01T06:59:19;0.40;99.90
39899;DHT22;25571;47.876;10.642;2023-03-01T07:01:45;0.30;99.90
39899;DHT22;25571;47.876;10.642;2023-03-01T07:04:12;0.20;99.90
39899;DHT22;25571;47.876;10.642;2023-03-01T07:06:37;0.20;99.90
39899;DHT22;25571;47.876;10.642;2023-03-01T07:09:03;0.30;99.90
39899;DHT22;25571;47.876;10.642;2023-03-01T07:11:28;0.30;99.90
39899;DHT22;25571;47.876;10.642;2023-03-01T07:13:54;0.40;99.90
39899;DHT22;25571;47.876;10.642;2023-03-01T07:16:20;0.50;99.90
39899;DHT22;25571;47.876;10.642;2023-03-01T07:18:46;0.50;99.90
39899;DHT22;25571;47.876;10.642;2023-03-01T07:21:13;0.60;99.90
39899;DHT22;25571;47.876;10.642;2023-03-01T07:23:39;0.50;99.90
39899;DHT22;25571;47.876;10.642;2023-03-01T07:26:05;0.50;99.90
39899;DHT22;25571;47.876;10.642;2023-03-01T07:28:31;0.50;99.90
39899;DHT22;25571;47.876;10.642;2023-03-01T07:31:02;0.50;99.90
39899;DHT22;25571;47.876;10.642;2023-03-01T07:33:28;0.50;99.90
39899;DHT22;25571;47.876;10.642;2023-03-01T07:36:02;0.50;99.90
39899;DHT22;25571;47.876;10.642;2023-03-01T07:38:28;0.50;99.90
39899;DHT22;25571;47.876;10.642;2023-03-01T07:41:01;0.50;99.90
39899;DHT22;25571;47.876;10.642;2023-03-01T07:43:28;0.50;99.90
39899;DHT22;25571;47.876;10.642;2023-03-01T07:45:54;0.30;99.90
39899;DHT22;25571;47.876;10.642;2023-03-01T07:48:19;0.30;99.90
39899;DHT22;25571;47.876;10.642;2023-03-01T07:50:45;0.20;99.90
39899;DHT22;25571;47.876;10.642;2023-03-01T07:53:10;0.30;99.90
39899;DHT22;25571;47.876;10.642;2023-03-01T07:55:36;0.30;99.90
39899;DHT22;25571;47.876;10.642;2023-03-01T07:58:03;0.40;99.90
39899;DHT22;25571;47.876;10.642;2023-03-01T08:00:28;0.40;99.90
39899;DHT22;25571;47.876;10.642;2023-03-01T08:02:54;0.40;99.90
39899;DHT22;25571;47.876;10.642;2023-03-01T08:05:19;0.50;99.90
39899;DHT22;25571;47.876;10.642;2023-03-01T08:07:47;0.40;99.90
39899;DHT22;25571;47.876;10.642;2023-03-01T08:10:13;0.40;99.90
39899;DHT22;25571;47.876;10.642;2023-03-01T08:12:38;0.40;99.90
39899;DHT22;25571;47.876;10.642;2023-03-01T08:15:04;0.50;99.90
39899;DHT22;25571;47.876;10.642;2023-03-01T08:17:30;0.40;99.90
39899;DHT22;25571;47.876;10.642;2023-03-01T08:19:55;0.40;99.90
39899;DHT22;25571;47.876;10.642;2023-03-01T08:22:21;0.40;99.90
39899;DHT22;25571;47.876;10.642;2023-03-01T08:24:46;0.30;99.90
39899;DHT22;25571;47.876;10.642;2023-03-01T08:27:14;0.30;99.90
39899;DHT22;25571;47.876;10.642;2023-03-01T08:29:40;0.40;99.90
39899;DHT22;25571;47.876;10.642;2023-03-01T08:32:05;0.50;99.90
39899;DHT22;25571;47.876;10.642;2023-03-01T08:34:31;0.60;99.90
39899;DHT22;25571;47.876;10.642;2023-03-01T08:36:57;0.60;99.90
39899;DHT22;25571;47.876;10.642;2023-03-01T08:39:22;0.50;99.90
39899;DHT22;25571;47.876;10.642;2023-03-01T08:41:48;0.60;99.90
39899;DHT22;25571;47.876;10.642;2023-03-01T08:44:15;0.70;99.90
39899;DHT22;25571;47.876;10.642;2023-03-01T08:46:43;0.70;99.90
39899;DHT22;25571;47.876;10.642;2023-03-01T08:49:15;0.60;99.90
39899;DHT22;25571;47.876;10.642;2023-03-01T08:51:42;0.70;99.90
39899;DHT22;25571;47.876;10.642;2023-03-01T08:54:11;0.80;99.90
39899;DHT22;25571;47.876;10.642;2023-03-01T08:56:37;0.90;99.90
39899;DHT22;25571;47.876;10.642;2023-03-01T08:59:03;0.80;99.90
39899;DHT22;25571;47.876;10.642;2023-03-01T09:01:29;0.90;99.90
39899;DHT22;25571;47.876;10.642;2023-03-01T09:03:54;1.00;99.90
39899;DHT22;25571;47.876;10.642;2023-03-01T09:06:20;1.00;99.90
39899;DHT22;25571;47.876;10.642;2023-03-01T09:08:48;1.10;99.90
39899;DHT22;25571;47.876;10.642;2023-03-01T09:11:17;1.10;99.90
39899;DHT22;25571;47.876;10.642;2023-03-01T09:13:44;1.10;99.90
39899;DHT22;25571;47.876;10.642;2023-03-01T09:16:12;1.00;99.90
39899;DHT22;25571;47.876;10.642;2023-03-01T09:18:38;1.10;99.90
39899;DHT22;25571;47.876;10.642;2023-03-01T09:21:09;1.10;99.90
39899;DHT22;25571;47.876;10.642;2023-03-01T09:23:36;1.10;99.90
39899;DHT22;25571;47.876;10.642;2023-03-01T09:26:08;1.00;99.90
39899;DHT22;25571;47.876;10.642;2023-03-01T09:28:35;1.10;99.90
39899;DHT22;25571;47.876;10.642;2023-03-01T09:31:02;1.20;99.90
39899;DHT22;25571;47.876;10.642;2023-03-01T09:33:29;1.40;99.90
39899;DHT22;25571;47.876;10.642;2023-03-01T09:36:06;1.30;99.90
39899;DHT22;25571;47.876;10.642;2023-03-01T09:38:32;1.40;99.90
39899;DHT22;25571;47.876;10.642;2023-03-01T09:40:59;1.40;99.90
39899;DHT22;25571;47.876;10.642;2023-03-01T09:46:05;1.30;99.90
39899;DHT22;25571;47.876;10.642;2023-03-01T09:48:43;1.20;99.90
39899;DHT22;25571;47.876;10.642;2023-03-01T09:51:17;1.20;99.90
39899;DHT22;25571;47.876;10.642;2023-03-01T09:53:44;1.30;99.90
39899;DHT22;25571;47.876;10.642;2023-03-01T10:01:46;1.40;99.90
39899;DHT22;25571;47.876;10.642;2023-03-01T10:05:00;1.30;99.90
39899;DHT22;25571;47.876;10.642;2023-03-01T10:09:52;1.50;99.90
39899;DHT22;25571;47.876;10.642;2023-03-01T10:12:25;1.60;99.90
39899;DHT22;25571;47.876;10.642;2023-03-01T10:17:43;1.40;99.90
39899;DHT22;25571;47.876;10.642;2023-03-01T10:20:14;1.40;99.90
39899;DHT22;25571;47.876;10.642;2023-03-01T10:22:41;1.50;99.90
39899;DHT22;25571;47.876;10.642;2023-03-01T10:25:13;1.70;99.90
39899;DHT22;25571;47.876;10.642;2023-03-01T10:27:50;1.50;99.90
39899;DHT22;25571;47.876;10.642;2023-03-01T10:30:38;1.40;99.90
39899;DHT22;25571;47.876;10.642;2023-03-01T10:33:21;1.40;99.90
39899;DHT22;25571;47.876;10.642;2023-03-01T10:35:47;1.50;99.90
39899;DHT22;25571;47.876;10.642;2023-03-01T10:38:15;1.50;99.90
39899;DHT22;25571;47.876;10.642;2023-03-01T10:40:55;1.60;99.90
39899;DHT22;25571;47.876;10.642;2023-03-01T10:43:45;1.70;99.90
39899;DHT22;25571;47.876;10.642;2023-03-01T10:46:37;1.90;99.90
39899;DHT22;25571;47.876;10.642;2023-03-01T10:49:20;1.90;99.90
39899;DHT22;25571;47.876;10.642;2023-03-01T10:51:51;1.80;99.90
39899;DHT22;25571;47.876;10.642;2023-03-01T10:54:29;1.80;99.90
39899;DHT22;25571;47.876;10.642;2023-03-01T11:00:25;2.00;99.90
39899;DHT22;25571;47.876;10.642;2023-03-01T11:03:03;2.00;99.90
39899;DHT22;25571;47.876;10.642;2023-03-01T11:05:35;2.00;99.90
39899;DHT22;25571;47.876;10.642;2023-03-01T11:08:02;2.10;99.90
39899;DHT22;25571;47.876;10.642;2023-03-01T11:10:31;2.00;99.90
39899;DHT22;25571;47.876;10.642;2023-03-01T11:13:08;2.00;99.90
39899;DHT22;25571;47.876;10.642;2023-03-01T11:15:39;2.10;99.90
39899;DHT22;25571;47.876;10.642;2023-03-01T11:18:21;2.00;99.90
39899;DHT22;25571;47.876;10.642;2023-03-01T11:20:48;2.10;99.90
39899;DHT22;25571;47.876;10.642;2023-03-01T11:23:15;2.00;99.90
39899;DHT22;25571;47.876;10.642;2023-03-01T11:25:44;2.00;99.90
39899;DHT22;25571;47.876;10.642;2023-03-01T11:28:15;2.00;99.90
39899;DHT22;25571;47.876;10.642;2023-03-01T11:31:03;2.00;99.90
39899;DHT22;25571;47.876;10.642;2023-03-01T11:36:26;2.00;99.90
39899;DHT22;25571;47.876;10.642;2023-03-01T11:38:55;2.00;99.90
39899;DHT22;25571;47.876;10.642;2023-03-01T11:41:29;2.00;99.90
39899;DHT22;25571;47.876;10.642;2023-03-01T11:44:00;2.10;99.90
39899;DHT22;25571;47.876;10.642;2023-03-01T12:14:28;2.20;99.90
39899;DHT22;25571;47.876;10.642;2023-03-01T12:17:11;2.20;99.90
39899;DHT22;25571;47.876;10.642;2023-03-01T12:25:47;1.80;99.90
39899;DHT22;25571;47.876;10.642;2023-03-01T12:28:23;1.70;99.90
39899;DHT22;25571;47.876;10.642;2023-03-01T12:45:12;1.80;99.90
39899;DHT22;25571;47.876;10.642;2023-03-01T12:50:53;2.10;99.90
39899;DHT22;25571;47.876;10.642;2023-03-01T12:53:34;2.20;99.90
39899;DHT22;25571;47.876;10.642;2023-03-01T12:56:12;2.10;99.90
39899;DHT22;25571;47.876;10.642;2023-03-01T12:59:00;2.20;99.90
39899;DHT22;25571;47.876;10.642;2023-03-01T13:09:38;2.60;99.90
39899;DHT22;25571;47.876;10.642;2023-03-01T13:12:50;2.60;99.90
39899;DHT22;25571;47.876;10.642;2023-03-01T13:17:49;2.50;99.90
39899;DHT22;25571;47.876;10.642;2023-03-01T13:20:24;2.40;99.90
39899;DHT22;25571;47.876;10.642;2023-03-01T13:23:01;2.20;99.90
39899;DHT22;25571;47.876;10.642;2023-03-01T13:25:27;2.20;99.90
39899;DHT22;25571;47.876;10.642;2023-03-01T13:30:56;2.00;99.90
39899;DHT22;25571;47.876;10.642;2023-03-01T13:35:55;2.10;99.90
39899;DHT22;25571;47.876;10.642;2023-03-01T13:38:48;2.00;99.90
39899;DHT22;25571;47.876;10.642;2023-03-01T13:41:15;2.00;99.90
39899;DHT22;25571;47.876;10.642;2023-03-01T13:43:43;1.90;99.90
39899;DHT22;25571;47.876;10.642;2023-03-01T13:46:19;1.90;99.90
39899;DHT22;25571;47.876;10.642;2023-03-01T13:48:52;2.00;99.90
39899;DHT22;25571;47.876;10.642;2023-03-01T13:51:26;2.10;99.90
39899;DHT22;25571;47.876;10.642;2023-03-01T13:53:53;2.20;99.90
39899;DHT22;25571;47.876;10.642;2023-03-01T13:56:25;2.20;99.90
39899;DHT22;25571;47.876;10.642;2023-03-01T13:59:01;2.20;99.90
39899;DHT22;25571;47.876;10.642;2023-03-01T14:01:35;2.30;99.90
39899;DHT22;25571;47.876;10.642;2023-03-01T14:04:02;2.40;99.90
39899;DHT22;25571;47.876;10.642;2023-03-01T14:06:30;2.50;99.90
39899;DHT22;25571;47.876;10.642;2023-03-01T14:11:57;2.60;99.90
39899;DHT22;25571;47.876;10.642;2023-03-01T14:14:46;2.60;99.90
39899;DHT22;25571;47.876;10.642;2023-03-01T14:19:48;2.80;99.90
39899;DHT22;25571;47.876;10.642;2023-03-01T14:22:26;2.70;99.90
39899;DHT22;25571;47.876;10.642;2023-03-01T14:25:20;2.80;99.90
39899;DHT22;25571;47.876;10.642;2023-03-01T14:27:44;2.80;99.90
39899;DHT22;25571;47.876;10.642;2023-03-01T14:30:25;2.90;99.90
39899;DHT22;25571;47.876;10.642;2023-03-01T14:33:00;2.90;99.90
39899;DHT22;25571;47.876;10.642;2023-03-01T14:35:28;2.90;99.90
39899;DHT22;25571;47.876;10.642;2023-03-01T14:37:55;3.00;99.90
39899;DHT22;25571;47.876;10.642;2023-03-01T14:42:48;3.00;99.90
39899;DHT22;25571;47.876;10.642;2023-03-01T14:45:14;3.10;99.90
39899;DHT22;25571;47.876;10.642;2023-03-01T14:47:40;3.10;99.90
39899;DHT22;25571;47.876;10.642;2023-03-01T14:52:48;3.10;99.90
39899;DHT22;25571;47.876;10.642;2023-03-01T14:55:20;3.10;99.90
39899;DHT22;25571;47.876;10.642;2023-03-01T14:57:50;3.20;99.90
39899;DHT22;25571;47.876;10.642;2023-03-01T15:00:28;3.20;99.90
39899;DHT22;25571;47.876;10.642;2023-03-01T15:02:56;3.10;99.90
39899;DHT22;25571;47.876;10.642;2023-03-01T15:05:32;3.10;99.90
39899;DHT22;25571;47.876;10.642;2023-03-01T15:08:00;3.00;99.90
39899;DHT22;25571;47.876;10.642;2023-03-01T15:10:29;2.80;99.90
39899;DHT22;25571;47.876;10.642;2023-03-01T15:12:55;2.70;99.90
39899;DHT22;25571;47.876;10.642;2023-03-01T15:15:26;2.70;99.90
39899;DHT22;25571;47.876;10.642;2023-03-01T15:17:57;2.60;99.90
39899;DHT22;25571;47.876;10.642;2023-03-01T15:20:26;2.60;99.90
39899;DHT22;25571;47.876;10.642;2023-03-01T15:22:54;2.60;99.90
39899;DHT22;25571;47.876;10.642;2023-03-01T15:25:26;2.60;99.90
39899;DHT22;25571;47.876;10.642;2023-03-01T15:27:54;2.50;99.90
39899;DHT22;25571;47.876;10.642;2023-03-01T15:30:23;2.50;99.90
39899;DHT22;25571;47.876;10.642;2023-03-01T15:33:16;2.50;99.90
39899;DHT22;25571;47.876;10.642;2023-03-01T15:35:45;2.40;99.90
39899;DHT22;25571;47.876;10.642;2023-03-01T15:41:37;2.50;99.90
39899;DHT22;25571;47.876;10.642;2023-03-01T15:44:17;2.40;99.90
39899;DHT22;25571;47.876;10.642;2023-03-01T15:46:47;2.30;99.90
39899;DHT22;25571;47.876;10.642;2023-03-01T15:49:33;2.30;99.90
39899;DHT22;25571;47.876;10.642;2023-03-01T15:52:00;2.30;99.90
39899;DHT22;25571;47.876;10.642;2023-03-01T15:54:26;2.40;99.90
39899;DHT22;25571;47.876;10.642;2023-03-01T15:56:53;2.50;99.90
39899;DHT22;25571;47.876;10.642;2023-03-01T15:59:18;2.60;99.90
39899;DHT22;25571;47.876;10.642;2023-03-01T16:01:45;2.70;99.90
39899;DHT22;25571;47.876;10.642;2023-03-01T16:04:16;2.70;99.90
39899;DHT22;25571;47.876;10.642;2023-03-01T16:06:50;2.80;99.90
39899;DHT22;25571;47.876;10.642;2023-03-01T16:09:22;2.80;99.90
39899;DHT22;25571;47.876;10.642;2023-03-01T16:11:49;2.80;99.90
39899;DHT22;25571;47.876;10.642;2023-03-01T16:14:15;2.80;99.90
39899;DHT22;25571;47.876;10.642;2023-03-01T16:16:42;2.80;99.90
39899;DHT22;25571;47.876;10.642;2023-03-01T16:19:07;2.90;99.90
39899;DHT22;25571;47.876;10.642;2023-03-01T16:21:33;2.90;99.90
39899;DHT22;25571;47.876;10.642;2023-03-01T16:23:58;2.90;99.90
39899;DHT22;25571;47.876;10.642;2023-03-01T16:26:24;2.90;99.90
39899;DHT22;25571;47.876;10.642;2023-03-01T16:28:49;2.80;99.90
39899;DHT22;25571;47.876;10.642;2023-03-01T16:31:19;2.70;99.90
39899;DHT22;25571;47.876;10.642;2023-03-01T16:33:45;2.70;99.90
39899;DHT22;25571;47.876;10.642;2023-03-01T16:36:16;2.60;99.90
39899;DHT22;25571;47.876;10.642;2023-03-01T16:38:42;2.60;99.90
39899;DHT22;25571;47.876;10.642;2023-03-01T16:41:12;2.50;99.90
39899;DHT22;25571;47.876;10.642;2023-03-01T16:43:38;2.40;99.90
39899;DHT22;25571;47.876;10.642;2023-03-01T16:46:16;2.40;99.90
39899;DHT22;25571;47.876;10.642;2023-03-01T16:48:42;2.50;99.90
39899;DHT22;25571;47.876;10.642;2023-03-01T16:51:08;2.50;99.90
39899;DHT22;25571;47.876;10.642;2023-03-01T16:53:34;2.50;99.90
39899;DHT22;25571;47.876;10.642;2023-03-01T16:56:06;2.50;99.90
39899;DHT22;25571;47.876;10.642;2023-03-01T16:58:33;2.50;99.90
39899;DHT22;25571;47.876;10.642;2023-03-01T17:01:21;2.50;99.90
39899;DHT22;25571;47.876;10.642;2023-03-01T17:03:51;2.50;99.90
39899;DHT22;25571;47.876;10.642;2023-03-01T17:06:19;2.50;99.90
39899;DHT22;25571;47.876;10.642;2023-03-01T17:08:50;2.50;99.90
39899;DHT22;25571;47.876;10.642;2023-03-01T17:11:19;2.50;99.90
39899;DHT22;25571;47.876;10.642;2023-03-01T17:13:46;2.50;99.90
39899;DHT22;25571;47.876;10.642;2023-03-01T17:16:15;2.40;99.90
39899;DHT22;25571;47.876;10.642;2023-03-01T17:18:41;2.40;99.90
39899;DHT22;25571;47.876;10.642;2023-03-01T17:21:08;2.30;99.90
39899;DHT22;25571;47.876;10.642;2023-03-01T17:23:36;2.30;99.90
39899;DHT22;25571;47.876;10.642;2023-03-01T17:26:02;2.30;99.90
39899;DHT22;25571;47.876;10.642;2023-03-01T17:28:29;2.20;99.90
39899;DHT22;25571;47.876;10.642;2023-03-01T17:30:56;2.30;99.90
39899;DHT22;25571;47.876;10.642;2023-03-01T17:33:21;2.20;99.90